Terminal Aerodrome Forecast
Issued by NWS Tampa Bay Area, FL

Home | Current Version | Previous Version | Text Only | Print | Product List | Glossary Off
Versions: 1 2 3 4 5 6 7 8 9 10 11 12

000
FTUS42 KTBW 270500
TAFSRQ
TAF
KSRQ 270533Z 2706/2806 31009KT P6SM FEW035
     FM271700 30015G25KT P6SM FEW040
     FM280200 29012KT P6SM FEW030=

USA.gov is the U.S. government's official web portal to all federal, state and local government web resources and services.